sensor_id;sensor_type;location;lat;lon;timestamp;P1;durP1;ratioP1;P2;durP2;ratioP2
52978;SDS011;63430;53.186;6.598;2023-04-16T00:00:05;64.75;;;57.92;;
52978;SDS011;63430;53.186;6.598;2023-04-16T00:02:14;71.93;;;65.85;;
52978;SDS011;63430;53.186;6.598;2023-04-16T00:04:17;69.18;;;62.70;;
52978;SDS011;63430;53.186;6.598;2023-04-16T00:06:21;68.40;;;60.83;;
52978;SDS011;63430;53.186;6.598;2023-04-16T00:08:24;57.35;;;49.95;;
52978;SDS011;63430;53.186;6.598;2023-04-16T00:10:26;65.03;;;59.00;;
52978;SDS011;63430;53.186;6.598;2023-04-16T00:12:32;60.22;;;51.70;;
52978;SDS011;63430;53.186;6.598;2023-04-16T00:14:34;61.92;;;56.30;;
52978;SDS011;63430;53.186;6.598;2023-04-16T00:16:37;56.28;;;50.53;;
52978;SDS011;63430;53.186;6.598;2023-04-16T00:18:40;62.23;;;51.83;;
52978;SDS011;63430;53.186;6.598;2023-04-16T00:20:43;55.50;;;49.67;;
52978;SDS011;63430;53.186;6.598;2023-04-16T00:22:45;62.85;;;49.60;;
52978;SDS011;63430;53.186;6.598;2023-04-16T00:24:48;54.05;;;48.45;;
52978;SDS011;63430;53.186;6.598;2023-04-16T00:26:51;58.40;;;48.90;;
52978;SDS011;63430;53.186;6.598;2023-04-16T00:28:56;61.03;;;48.35;;
52978;SDS011;63430;53.186;6.598;2023-04-16T00:30:59;60.05;;;50.03;;
52978;SDS011;63430;53.186;6.598;2023-04-16T00:33:03;49.58;;;43.00;;
52978;SDS011;63430;53.186;6.598;2023-04-16T00:35:06;55.75;;;46.35;;
52978;SDS011;63430;53.186;6.598;2023-04-16T00:37:10;58.75;;;50.70;;
52978;SDS011;63430;53.186;6.598;2023-04-16T00:39:12;56.05;;;50.60;;
52978;SDS011;63430;53.186;6.598;2023-04-16T00:41:16;56.65;;;50.55;;
52978;SDS011;63430;53.186;6.598;2023-04-16T00:43:21;53.50;;;47.83;;
52978;SDS011;63430;53.186;6.598;2023-04-16T00:45:28;54.28;;;48.85;;
52978;SDS011;63430;53.186;6.598;2023-04-16T00:47:30;61.47;;;48.42;;
52978;SDS011;63430;53.186;6.598;2023-04-16T00:49:33;57.42;;;49.55;;
52978;SDS011;63430;53.186;6.598;2023-04-16T00:51:36;56.23;;;50.27;;
52978;SDS011;63430;53.186;6.598;2023-04-16T00:53:40;61.17;;;53.17;;
52978;SDS011;63430;53.186;6.598;2023-04-16T00:55:43;55.67;;;49.05;;
52978;SDS011;63430;53.186;6.598;2023-04-16T00:57:46;47.40;;;38.78;;
52978;SDS011;63430;53.186;6.598;2023-04-16T00:59:49;51.53;;;44.85;;
52978;SDS011;63430;53.186;6.598;2023-04-16T01:01:55;57.40;;;46.85;;
52978;SDS011;63430;53.186;6.598;2023-04-16T01:03:58;55.92;;;48.22;;
52978;SDS011;63430;53.186;6.598;2023-04-16T01:06:01;59.28;;;47.13;;
52978;SDS011;63430;53.186;6.598;2023-04-16T01:08:04;59.65;;;45.03;;
52978;SDS011;63430;53.186;6.598;2023-04-16T01:10:07;58.38;;;45.70;;
52978;SDS011;63430;53.186;6.598;2023-04-16T01:12:10;57.20;;;50.10;;
52978;SDS011;63430;53.186;6.598;2023-04-16T01:14:13;52.30;;;46.60;;
52978;SDS011;63430;53.186;6.598;2023-04-16T01:16:15;55.63;;;50.28;;
52978;SDS011;63430;53.186;6.598;2023-04-16T01:18:21;64.88;;;51.28;;
52978;SDS011;63430;53.186;6.598;2023-04-16T01:20:25;53.35;;;48.10;;
52978;SDS011;63430;53.186;6.598;2023-04-16T01:22:30;61.45;;;53.20;;
52978;SDS011;63430;53.186;6.598;2023-04-16T01:24:36;64.03;;;50.65;;
52978;SDS011;63430;53.186;6.598;2023-04-16T01:26:39;65.13;;;52.00;;
52978;SDS011;63430;53.186;6.598;2023-04-16T01:28:42;60.45;;;51.40;;
52978;SDS011;63430;53.186;6.598;2023-04-16T01:30:44;59.28;;;53.47;;
52978;SDS011;63430;53.186;6.598;2023-04-16T01:32:58;61.17;;;54.22;;
52978;SDS011;63430;53.186;6.598;2023-04-16T01:35:00;52.72;;;45.90;;
52978;SDS011;63430;53.186;6.598;2023-04-16T01:37:03;51.92;;;47.35;;
52978;SDS011;63430;53.186;6.598;2023-04-16T01:39:09;51.13;;;45.90;;
52978;SDS011;63430;53.186;6.598;2023-04-16T01:41:14;49.80;;;44.95;;
52978;SDS011;63430;53.186;6.598;2023-04-16T01:43:20;55.47;;;48.47;;
52978;SDS011;63430;53.186;6.598;2023-04-16T01:45:23;60.50;;;53.30;;
52978;SDS011;63430;53.186;6.598;2023-04-16T01:47:26;65.40;;;54.30;;
52978;SDS011;63430;53.186;6.598;2023-04-16T01:49:28;52.85;;;47.38;;
52978;SDS011;63430;53.186;6.598;2023-04-16T01:51:31;61.70;;;55.80;;
52978;SDS011;63430;53.186;6.598;2023-04-16T01:53:34;52.45;;;46.13;;
52978;SDS011;63430;53.186;6.598;2023-04-16T01:55:40;61.88;;;53.88;;
52978;SDS011;63430;53.186;6.598;2023-04-16T01:57:43;68.00;;;61.50;;
52978;SDS011;63430;53.186;6.598;2023-04-16T01:59:47;58.10;;;52.58;;
52978;SDS011;63430;53.186;6.598;2023-04-16T02:01:50;60.13;;;54.53;;
52978;SDS011;63430;53.186;6.598;2023-04-16T02:03:53;64.68;;;58.30;;
52978;SDS011;63430;53.186;6.598;2023-04-16T02:05:56;62.10;;;56.33;;
52978;SDS011;63430;53.186;6.598;2023-04-16T02:07:59;72.45;;;66.43;;
52978;SDS011;63430;53.186;6.598;2023-04-16T02:10:01;59.78;;;53.42;;
52978;SDS011;63430;53.186;6.598;2023-04-16T02:12:09;57.97;;;52.25;;
52978;SDS011;63430;53.186;6.598;2023-04-16T02:14:12;62.90;;;56.60;;
52978;SDS011;63430;53.186;6.598;2023-04-16T02:16:17;65.68;;;58.70;;
52978;SDS011;63430;53.186;6.598;2023-04-16T02:18:30;75.75;;;63.40;;
52978;SDS011;63430;53.186;6.598;2023-04-16T02:20:34;76.25;;;58.33;;
52978;SDS011;63430;53.186;6.598;2023-04-16T02:22:41;73.55;;;66.25;;
52978;SDS011;63430;53.186;6.598;2023-04-16T02:24:47;78.78;;;71.28;;
52978;SDS011;63430;53.186;6.598;2023-04-16T02:26:54;68.97;;;61.63;;
52978;SDS011;63430;53.186;6.598;2023-04-16T02:29:01;73.57;;;66.47;;
52978;SDS011;63430;53.186;6.598;2023-04-16T02:31:14;78.20;;;70.85;;
52978;SDS011;63430;53.186;6.598;2023-04-16T02:33:21;53.90;;;48.40;;
52978;SDS011;63430;53.186;6.598;2023-04-16T02:35:34;78.63;;;70.38;;
52978;SDS011;63430;53.186;6.598;2023-04-16T02:37:38;88.75;;;80.38;;
52978;SDS011;63430;53.186;6.598;2023-04-16T02:39:41;92.90;;;83.38;;
52978;SDS011;63430;53.186;6.598;2023-04-16T02:41:44;99.03;;;89.03;;
52978;SDS011;63430;53.186;6.598;2023-04-16T02:43:47;90.40;;;81.53;;
52978;SDS011;63430;53.186;6.598;2023-04-16T02:45:52;85.60;;;78.10;;
52978;SDS011;63430;53.186;6.598;2023-04-16T02:47:55;96.10;;;86.93;;
52978;SDS011;63430;53.186;6.598;2023-04-16T02:49:58;97.20;;;87.88;;
52978;SDS011;63430;53.186;6.598;2023-04-16T02:52:00;83.40;;;76.03;;
52978;SDS011;63430;53.186;6.598;2023-04-16T02:54:03;67.72;;;61.47;;
52978;SDS011;63430;53.186;6.598;2023-04-16T02:56:06;78.60;;;71.17;;
52978;SDS011;63430;53.186;6.598;2023-04-16T02:58:11;73.90;;;66.65;;
52978;SDS011;63430;53.186;6.598;2023-04-16T03:00:14;56.30;;;50.47;;
52978;SDS011;63430;53.186;6.598;2023-04-16T03:02:19;84.35;;;77.35;;
52978;SDS011;63430;53.186;6.598;2023-04-16T03:04:22;78.18;;;70.75;;
52978;SDS011;63430;53.186;6.598;2023-04-16T03:06:25;89.68;;;82.80;;
52978;SDS011;63430;53.186;6.598;2023-04-16T03:08:28;89.45;;;80.40;;
52978;SDS011;63430;53.186;6.598;2023-04-16T03:10:31;95.28;;;86.97;;
52978;SDS011;63430;53.186;6.598;2023-04-16T03:12:33;63.45;;;57.05;;
52978;SDS011;63430;53.186;6.598;2023-04-16T03:14:40;70.05;;;63.63;;
52978;SDS011;63430;53.186;6.598;2023-04-16T03:16:43;73.07;;;66.45;;
52978;SDS011;63430;53.186;6.598;2023-04-16T03:18:48;72.68;;;66.10;;
52978;SDS011;63430;53.186;6.598;2023-04-16T03:20:52;72.40;;;64.90;;
52978;SDS011;63430;53.186;6.598;2023-04-16T03:22:55;71.28;;;64.13;;
52978;SDS011;63430;53.186;6.598;2023-04-16T03:24:58;81.03;;;73.38;;
52978;SDS011;63430;53.186;6.598;2023-04-16T03:27:01;68.72;;;62.20;;
52978;SDS011;63430;53.186;6.598;2023-04-16T03:29:03;73.07;;;65.35;;
52978;SDS011;63430;53.186;6.598;2023-04-16T03:31:06;63.08;;;54.78;;
52978;SDS011;63430;53.186;6.598;2023-04-16T03:33:12;73.45;;;66.38;;
52978;SDS011;63430;53.186;6.598;2023-04-16T03:35:17;74.68;;;67.85;;
52978;SDS011;63430;53.186;6.598;2023-04-16T03:37:20;68.25;;;61.70;;
52978;SDS011;63430;53.186;6.598;2023-04-16T03:39:24;67.63;;;59.92;;
52978;SDS011;63430;53.186;6.598;2023-04-16T03:41:26;70.80;;;63.78;;
52978;SDS011;63430;53.186;6.598;2023-04-16T03:43:29;62.08;;;55.58;;
52978;SDS011;63430;53.186;6.598;2023-04-16T03:45:32;70.50;;;63.38;;
52978;SDS011;63430;53.186;6.598;2023-04-16T03:47:35;66.80;;;60.58;;
52978;SDS011;63430;53.186;6.598;2023-04-16T03:49:38;77.03;;;69.25;;
52978;SDS011;63430;53.186;6.598;2023-04-16T03:51:44;64.45;;;58.88;;
52978;SDS011;63430;53.186;6.598;2023-04-16T03:53:46;75.13;;;67.65;;
52978;SDS011;63430;53.186;6.598;2023-04-16T03:55:50;65.80;;;59.92;;
52978;SDS011;63430;53.186;6.598;2023-04-16T03:57:54;77.95;;;69.78;;
52978;SDS011;63430;53.186;6.598;2023-04-16T03:59:58;68.53;;;60.42;;
52978;SDS011;63430;53.186;6.598;2023-04-16T04:02:03;83.95;;;76.88;;
52978;SDS011;63430;53.186;6.598;2023-04-16T04:04:11;68.22;;;61.70;;
52978;SDS011;63430;53.186;6.598;2023-04-16T04:06:15;68.43;;;62.13;;
52978;SDS011;63430;53.186;6.598;2023-04-16T04:08:21;75.80;;;68.60;;
52978;SDS011;63430;53.186;6.598;2023-04-16T04:10:25;64.13;;;58.08;;
52978;SDS011;63430;53.186;6.598;2023-04-16T04:12:27;74.00;;;64.68;;
52978;SDS011;63430;53.186;6.598;2023-04-16T04:14:30;81.32;;;74.40;;
52978;SDS011;63430;53.186;6.598;2023-04-16T04:16:33;70.10;;;63.55;;
52978;SDS011;63430;53.186;6.598;2023-04-16T04:18:37;57.60;;;51.90;;
52978;SDS011;63430;53.186;6.598;2023-04-16T04:20:45;62.80;;;56.50;;
52978;SDS011;63430;53.186;6.598;2023-04-16T04:22:51;97.03;;;65.43;;
52978;SDS011;63430;53.186;6.598;2023-04-16T04:25:03;69.80;;;57.97;;
52978;SDS011;63430;53.186;6.598;2023-04-16T04:27:10;71.63;;;64.25;;
52978;SDS011;63430;53.186;6.598;2023-04-16T04:29:16;68.25;;;59.38;;
52978;SDS011;63430;53.186;6.598;2023-04-16T04:31:22;75.82;;;66.75;;
52978;SDS011;63430;53.186;6.598;2023-04-16T04:33:25;75.50;;;67.50;;
52978;SDS011;63430;53.186;6.598;2023-04-16T04:35:30;65.13;;;59.22;;
52978;SDS011;63430;53.186;6.598;2023-04-16T04:37:42;62.40;;;55.08;;
52978;SDS011;63430;53.186;6.598;2023-04-16T04:39:52;60.25;;;54.40;;
52978;SDS011;63430;53.186;6.598;2023-04-16T04:42:05;73.47;;;67.07;;
52978;SDS011;63430;53.186;6.598;2023-04-16T04:44:09;68.78;;;62.83;;
52978;SDS011;63430;53.186;6.598;2023-04-16T04:46:12;65.13;;;56.92;;
52978;SDS011;63430;53.186;6.598;2023-04-16T04:48:16;65.15;;;58.33;;
52978;SDS011;63430;53.186;6.598;2023-04-16T04:50:19;63.22;;;56.03;;
52978;SDS011;63430;53.186;6.598;2023-04-16T04:52:23;62.30;;;54.57;;
52978;SDS011;63430;53.186;6.598;2023-04-16T04:54:26;64.00;;;57.75;;
52978;SDS011;63430;53.186;6.598;2023-04-16T04:56:36;65.15;;;59.05;;
52978;SDS011;63430;53.186;6.598;2023-04-16T04:58:43;61.75;;;56.17;;
52978;SDS011;63430;53.186;6.598;2023-04-16T05:00:46;70.28;;;62.83;;
52978;SDS011;63430;53.186;6.598;2023-04-16T05:04:53;47.55;;;42.47;;
52978;SDS011;63430;53.186;6.598;2023-04-16T05:06:59;57.80;;;49.08;;
52978;SDS011;63430;53.186;6.598;2023-04-16T05:09:03;58.60;;;52.60;;
52978;SDS011;63430;53.186;6.598;2023-04-16T05:11:09;54.72;;;48.65;;
52978;SDS011;63430;53.186;6.598;2023-04-16T05:13:15;57.70;;;51.95;;
52978;SDS011;63430;53.186;6.598;2023-04-16T05:15:25;79.15;;;55.95;;
52978;SDS011;63430;53.186;6.598;2023-04-16T05:17:28;59.40;;;52.78;;
52978;SDS011;63430;53.186;6.598;2023-04-16T05:19:31;67.53;;;61.05;;
52978;SDS011;63430;53.186;6.598;2023-04-16T05:21:37;67.57;;;61.50;;
52978;SDS011;63430;53.186;6.598;2023-04-16T05:23:43;68.80;;;62.00;;
52978;SDS011;63430;53.186;6.598;2023-04-16T05:25:45;63.00;;;56.88;;
52978;SDS011;63430;53.186;6.598;2023-04-16T05:29:58;55.38;;;47.35;;
52978;SDS011;63430;53.186;6.598;2023-04-16T05:32:09;57.92;;;50.88;;
52978;SDS011;63430;53.186;6.598;2023-04-16T05:34:16;66.13;;;59.63;;
52978;SDS011;63430;53.186;6.598;2023-04-16T05:36:19;54.85;;;49.38;;
52978;SDS011;63430;53.186;6.598;2023-04-16T05:38:23;57.38;;;51.78;;
52978;SDS011;63430;53.186;6.598;2023-04-16T05:40:28;68.90;;;56.10;;
52978;SDS011;63430;53.186;6.598;2023-04-16T05:42:32;58.85;;;53.03;;
52978;SDS011;63430;53.186;6.598;2023-04-16T05:44:35;72.82;;;66.05;;
52978;SDS011;63430;53.186;6.598;2023-04-16T05:46:39;62.17;;;56.08;;
52978;SDS011;63430;53.186;6.598;2023-04-16T05:48:45;60.72;;;55.40;;
52978;SDS011;63430;53.186;6.598;2023-04-16T05:50:51;73.43;;;67.00;;
52978;SDS011;63430;53.186;6.598;2023-04-16T05:52:55;66.78;;;60.65;;
52978;SDS011;63430;53.186;6.598;2023-04-16T05:55:00;65.43;;;59.70;;
52978;SDS011;63430;53.186;6.598;2023-04-16T05:57:03;72.72;;;65.43;;
52978;SDS011;63430;53.186;6.598;2023-04-16T05:59:08;73.10;;;66.57;;
52978;SDS011;63430;53.186;6.598;2023-04-16T06:01:25;69.15;;;62.75;;
52978;SDS011;63430;53.186;6.598;2023-04-16T06:03:29;71.25;;;65.43;;
52978;SDS011;63430;53.186;6.598;2023-04-16T06:05:37;59.28;;;54.60;;
52978;SDS011;63430;53.186;6.598;2023-04-16T06:07:40;76.68;;;70.57;;
52978;SDS011;63430;53.186;6.598;2023-04-16T06:09:45;78.95;;;72.53;;
52978;SDS011;63430;53.186;6.598;2023-04-16T06:11:48;96.70;;;88.78;;
52978;SDS011;63430;53.186;6.598;2023-04-16T06:13:54;87.63;;;81.50;;
52978;SDS011;63430;53.186;6.598;2023-04-16T06:15:57;99.80;;;92.53;;
52978;SDS011;63430;53.186;6.598;2023-04-16T06:18:03;87.40;;;79.65;;
52978;SDS011;63430;53.186;6.598;2023-04-16T06:20:12;66.25;;;60.78;;
52978;SDS011;63430;53.186;6.598;2023-04-16T06:22:18;73.50;;;67.65;;
52978;SDS011;63430;53.186;6.598;2023-04-16T06:24:26;78.22;;;71.43;;
52978;SDS011;63430;53.186;6.598;2023-04-16T06:26:31;65.60;;;58.88;;
52978;SDS011;63430;53.186;6.598;2023-04-16T06:28:37;79.10;;;72.22;;
52978;SDS011;63430;53.186;6.598;2023-04-16T06:30:40;81.70;;;73.97;;
52978;SDS011;63430;53.186;6.598;2023-04-16T06:32:45;82.97;;;75.47;;
52978;SDS011;63430;53.186;6.598;2023-04-16T06:34:51;71.25;;;64.63;;
52978;SDS011;63430;53.186;6.598;2023-04-16T06:36:59;77.47;;;69.85;;
52978;SDS011;63430;53.186;6.598;2023-04-16T06:39:06;64.18;;;57.85;;
52978;SDS011;63430;53.186;6.598;2023-04-16T06:41:13;90.45;;;82.50;;
52978;SDS011;63430;53.186;6.598;2023-04-16T06:43:29;72.45;;;65.50;;
52978;SDS011;63430;53.186;6.598;2023-04-16T06:45:37;97.45;;;90.38;;
52978;SDS011;63430;53.186;6.598;2023-04-16T06:47:40;84.30;;;77.77;;
52978;SDS011;63430;53.186;6.598;2023-04-16T06:49:43;98.43;;;91.72;;
52978;SDS011;63430;53.186;6.598;2023-04-16T06:51:51;96.25;;;88.63;;
52978;SDS011;63430;53.186;6.598;2023-04-16T06:53:54;90.60;;;83.05;;
52978;SDS011;63430;53.186;6.598;2023-04-16T06:56:00;91.22;;;83.15;;
52978;SDS011;63430;53.186;6.598;2023-04-16T06:58:04;103.20;;;95.00;;
52978;SDS011;63430;53.186;6.598;2023-04-16T07:00:14;107.40;;;100.43;;
52978;SDS011;63430;53.186;6.598;2023-04-16T07:02:30;91.43;;;83.85;;
52978;SDS011;63430;53.186;6.598;2023-04-16T07:04:33;93.07;;;86.53;;
52978;SDS011;63430;53.186;6.598;2023-04-16T07:06:38;90.68;;;84.45;;
52978;SDS011;63430;53.186;6.598;2023-04-16T07:08:41;103.28;;;94.85;;
52978;SDS011;63430;53.186;6.598;2023-04-16T07:10:49;111.10;;;102.93;;
52978;SDS011;63430;53.186;6.598;2023-04-16T07:12:59;98.93;;;91.80;;
52978;SDS011;63430;53.186;6.598;2023-04-16T07:15:03;108.63;;;100.68;;
52978;SDS011;63430;53.186;6.598;2023-04-16T07:17:12;110.38;;;102.20;;
52978;SDS011;63430;53.186;6.598;2023-04-16T07:19:20;110.63;;;102.63;;
52978;SDS011;63430;53.186;6.598;2023-04-16T07:21:22;92.78;;;86.15;;
52978;SDS011;63430;53.186;6.598;2023-04-16T07:23:30;88.88;;;81.70;;
52978;SDS011;63430;53.186;6.598;2023-04-16T07:25:36;77.97;;;71.30;;
52978;SDS011;63430;53.186;6.598;2023-04-16T07:27:39;79.85;;;74.65;;
52978;SDS011;63430;53.186;6.598;2023-04-16T07:29:45;87.55;;;81.68;;
52978;SDS011;63430;53.186;6.598;2023-04-16T07:31:48;80.45;;;74.80;;
52978;SDS011;63430;53.186;6.598;2023-04-16T07:33:54;83.85;;;77.10;;
52978;SDS011;63430;53.186;6.598;2023-04-16T07:35:57;77.23;;;71.20;;
52978;SDS011;63430;53.186;6.598;2023-04-16T07:38:00;74.13;;;68.38;;
52978;SDS011;63430;53.186;6.598;2023-04-16T07:40:06;65.90;;;60.03;;
52978;SDS011;63430;53.186;6.598;2023-04-16T07:42:13;76.75;;;70.25;;
52978;SDS011;63430;53.186;6.598;2023-04-16T07:44:20;73.20;;;67.28;;
52978;SDS011;63430;53.186;6.598;2023-04-16T07:46:32;73.10;;;67.28;;
52978;SDS011;63430;53.186;6.598;2023-04-16T07:48:50;69.93;;;65.07;;
52978;SDS011;63430;53.186;6.598;2023-04-16T07:50:53;71.55;;;65.32;;
52978;SDS011;63430;53.186;6.598;2023-04-16T07:52:57;48.70;;;43.63;;
52978;SDS011;63430;53.186;6.598;2023-04-16T07:55:04;61.17;;;56.35;;
52978;SDS011;63430;53.186;6.598;2023-04-16T07:57:07;63.15;;;57.25;;
52978;SDS011;63430;53.186;6.598;2023-04-16T07:59:13;63.72;;;58.10;;
52978;SDS011;63430;53.186;6.598;2023-04-16T08:01:24;65.97;;;60.22;;
52978;SDS011;63430;53.186;6.598;2023-04-16T08:03:31;69.28;;;63.28;;
52978;SDS011;63430;53.186;6.598;2023-04-16T08:05:36;65.25;;;60.15;;
52978;SDS011;63430;53.186;6.598;2023-04-16T08:07:41;66.05;;;60.17;;
52978;SDS011;63430;53.186;6.598;2023-04-16T08:09:49;59.58;;;55.00;;
52978;SDS011;63430;53.186;6.598;2023-04-16T08:11:55;61.17;;;55.78;;
52978;SDS011;63430;53.186;6.598;2023-04-16T08:14:02;58.83;;;47.95;;
52978;SDS011;63430;53.186;6.598;2023-04-16T08:16:06;58.95;;;53.42;;
52978;SDS011;63430;53.186;6.598;2023-04-16T08:18:12;55.97;;;51.83;;
52978;SDS011;63430;53.186;6.598;2023-04-16T08:20:21;53.38;;;48.10;;
52978;SDS011;63430;53.186;6.598;2023-04-16T08:22:24;49.58;;;44.47;;
52978;SDS011;63430;53.186;6.598;2023-04-16T08:24:27;51.67;;;46.97;;
52978;SDS011;63430;53.186;6.598;2023-04-16T08:26:32;51.22;;;46.40;;
52978;SDS011;63430;53.186;6.598;2023-04-16T08:28:35;58.25;;;53.25;;
52978;SDS011;63430;53.186;6.598;2023-04-16T08:30:40;50.05;;;45.17;;
52978;SDS011;63430;53.186;6.598;2023-04-16T08:32:42;56.17;;;52.03;;
52978;SDS011;63430;53.186;6.598;2023-04-16T08:36:54;49.55;;;44.92;;
52978;SDS011;63430;53.186;6.598;2023-04-16T08:38:58;45.80;;;41.42;;
52978;SDS011;63430;53.186;6.598;2023-04-16T08:41:01;50.53;;;46.80;;
52978;SDS011;63430;53.186;6.598;2023-04-16T08:43:12;48.20;;;44.55;;
52978;SDS011;63430;53.186;6.598;2023-04-16T08:45:20;51.60;;;46.70;;
52978;SDS011;63430;53.186;6.598;2023-04-16T08:47:22;52.22;;;46.53;;
52978;SDS011;63430;53.186;6.598;2023-04-16T08:49:28;54.70;;;50.28;;
52978;SDS011;63430;53.186;6.598;2023-04-16T08:51:39;53.80;;;48.72;;
52978;SDS011;63430;53.186;6.598;2023-04-16T08:53:56;53.53;;;49.08;;
52978;SDS011;63430;53.186;6.598;2023-04-16T08:56:06;65.28;;;60.50;;
52978;SDS011;63430;53.186;6.598;2023-04-16T08:58:12;61.50;;;57.08;;
52978;SDS011;63430;53.186;6.598;2023-04-16T09:00:19;59.45;;;54.63;;
52978;SDS011;63430;53.186;6.598;2023-04-16T09:02:25;61.97;;;57.65;;
52978;SDS011;63430;53.186;6.598;2023-04-16T09:04:29;63.22;;;58.55;;
52978;SDS011;63430;53.186;6.598;2023-04-16T09:06:33;61.30;;;57.00;;
52978;SDS011;63430;53.186;6.598;2023-04-16T09:08:42;67.72;;;62.85;;
52978;SDS011;63430;53.186;6.598;2023-04-16T09:15:01;45.97;;;41.72;;
52978;SDS011;63430;53.186;6.598;2023-04-16T09:17:04;44.58;;;40.42;;
52978;SDS011;63430;53.186;6.598;2023-04-16T09:19:09;66.15;;;61.97;;
52978;SDS011;63430;53.186;6.598;2023-04-16T09:21:17;49.17;;;44.63;;
52978;SDS011;63430;53.186;6.598;2023-04-16T09:23:24;53.70;;;49.75;;
52978;SDS011;63430;53.186;6.598;2023-04-16T09:25:27;60.22;;;56.13;;
52978;SDS011;63430;53.186;6.598;2023-04-16T09:27:41;59.53;;;55.13;;
52978;SDS011;63430;53.186;6.598;2023-04-16T09:29:45;53.63;;;49.45;;
52978;SDS011;63430;53.186;6.598;2023-04-16T09:31:58;48.20;;;43.88;;
52978;SDS011;63430;53.186;6.598;2023-04-16T09:34:10;41.03;;;37.25;;
52978;SDS011;63430;53.186;6.598;2023-04-16T09:36:16;51.05;;;46.38;;
52978;SDS011;63430;53.186;6.598;2023-04-16T09:38:24;37.08;;;33.90;;
52978;SDS011;63430;53.186;6.598;2023-04-16T09:40:34;46.25;;;42.78;;
52978;SDS011;63430;53.186;6.598;2023-04-16T09:42:37;52.17;;;48.20;;
52978;SDS011;63430;53.186;6.598;2023-04-16T09:44:45;51.95;;;47.42;;
52978;SDS011;63430;53.186;6.598;2023-04-16T09:46:51;49.47;;;45.03;;
52978;SDS011;63430;53.186;6.598;2023-04-16T09:48:57;50.00;;;46.05;;
52978;SDS011;63430;53.186;6.598;2023-04-16T09:51:05;43.28;;;39.83;;
52978;SDS011;63430;53.186;6.598;2023-04-16T09:53:08;46.15;;;42.05;;
52978;SDS011;63430;53.186;6.598;2023-04-16T09:55:11;45.90;;;42.28;;
52978;SDS011;63430;53.186;6.598;2023-04-16T09:57:19;38.47;;;35.10;;
52978;SDS011;63430;53.186;6.598;2023-04-16T09:59:26;38.45;;;35.30;;
52978;SDS011;63430;53.186;6.598;2023-04-16T10:01:32;28.65;;;25.75;;
52978;SDS011;63430;53.186;6.598;2023-04-16T10:03:38;45.53;;;41.72;;
52978;SDS011;63430;53.186;6.598;2023-04-16T10:07:44;22.25;;;20.20;;
52978;SDS011;63430;53.186;6.598;2023-04-16T10:09:51;27.80;;;25.17;;
52978;SDS011;63430;53.186;6.598;2023-04-16T10:11:54;26.52;;;24.23;;
52978;SDS011;63430;53.186;6.598;2023-04-16T10:13:58;36.90;;;34.00;;
52978;SDS011;63430;53.186;6.598;2023-04-16T10:16:06;27.95;;;25.27;;
52978;SDS011;63430;53.186;6.598;2023-04-16T10:18:10;36.90;;;33.83;;
52978;SDS011;63430;53.186;6.598;2023-04-16T10:20:14;25.45;;;21.58;;
52978;SDS011;63430;53.186;6.598;2023-04-16T10:22:20;35.67;;;32.17;;
52978;SDS011;63430;53.186;6.598;2023-04-16T10:24:23;28.42;;;25.63;;
52978;SDS011;63430;53.186;6.598;2023-04-16T10:26:39;23.45;;;15.30;;
52978;SDS011;63430;53.186;6.598;2023-04-16T10:28:44;37.45;;;34.35;;
52978;SDS011;63430;53.186;6.598;2023-04-16T10:30:48;28.60;;;25.92;;
52978;SDS011;63430;53.186;6.598;2023-04-16T10:33:05;28.20;;;25.35;;
52978;SDS011;63430;53.186;6.598;2023-04-16T10:35:09;30.25;;;23.83;;
52978;SDS011;63430;53.186;6.598;2023-04-16T10:37:17;26.27;;;23.65;;
52978;SDS011;63430;53.186;6.598;2023-04-16T10:41:25;25.08;;;14.13;;
52978;SDS011;63430;53.186;6.598;2023-04-16T10:43:37;17.60;;;15.10;;
52978;SDS011;63430;53.186;6.598;2023-04-16T10:45:42;29.02;;;17.58;;
52978;SDS011;63430;53.186;6.598;2023-04-16T10:47:46;39.38;;;27.88;;
52978;SDS011;63430;53.186;6.598;2023-04-16T10:49:52;23.45;;;19.13;;
52978;SDS011;63430;53.186;6.598;2023-04-16T10:51:55;32.60;;;29.52;;
52978;SDS011;63430;53.186;6.598;2023-04-16T10:54:01;27.25;;;22.50;;
52978;SDS011;63430;53.186;6.598;2023-04-16T10:56:09;20.73;;;16.92;;
52978;SDS011;63430;53.186;6.598;2023-04-16T10:58:25;24.20;;;21.77;;
52978;SDS011;63430;53.186;6.598;2023-04-16T11:00:28;25.40;;;22.80;;
52978;SDS011;63430;53.186;6.598;2023-04-16T11:02:32;36.88;;;33.92;;
52978;SDS011;63430;53.186;6.598;2023-04-16T11:04:36;25.42;;;16.27;;
52978;SDS011;63430;53.186;6.598;2023-04-16T11:06:42;26.15;;;18.75;;
52978;SDS011;63430;53.186;6.598;2023-04-16T11:09:06;31.15;;;28.13;;
52978;SDS011;63430;53.186;6.598;2023-04-16T11:11:40;65.95;;;61.97;;
52978;SDS011;63430;53.186;6.598;2023-04-16T11:13:43;22.58;;;20.33;;
52978;SDS011;63430;53.186;6.598;2023-04-16T11:15:47;34.07;;;30.70;;
52978;SDS011;63430;53.186;6.598;2023-04-16T11:17:50;41.10;;;37.38;;
52978;SDS011;63430;53.186;6.598;2023-04-16T11:19:53;44.53;;;40.25;;
52978;SDS011;63430;53.186;6.598;2023-04-16T11:21:59;35.53;;;32.03;;
52978;SDS011;63430;53.186;6.598;2023-04-16T11:24:02;55.40;;;51.88;;
52978;SDS011;63430;53.186;6.598;2023-04-16T11:26:05;45.80;;;42.72;;
52978;SDS011;63430;53.186;6.598;2023-04-16T11:28:34;35.78;;;32.38;;
52978;SDS011;63430;53.186;6.598;2023-04-16T11:30:43;39.67;;;36.20;;
52978;SDS011;63430;53.186;6.598;2023-04-16T11:32:47;32.90;;;30.02;;
52978;SDS011;63430;53.186;6.598;2023-04-16T11:34:50;39.42;;;36.08;;
52978;SDS011;63430;53.186;6.598;2023-04-16T11:36:53;44.25;;;41.17;;
52978;SDS011;63430;53.186;6.598;2023-04-16T11:39:02;51.03;;;46.85;;
52978;SDS011;63430;53.186;6.598;2023-04-16T11:41:07;37.42;;;34.47;;
52978;SDS011;63430;53.186;6.598;2023-04-16T11:43:15;39.08;;;35.53;;
52978;SDS011;63430;53.186;6.598;2023-04-16T11:45:19;36.42;;;33.20;;
52978;SDS011;63430;53.186;6.598;2023-04-16T11:49:28;29.08;;;26.02;;
52978;SDS011;63430;53.186;6.598;2023-04-16T11:51:30;33.03;;;29.10;;
52978;SDS011;63430;53.186;6.598;2023-04-16T11:53:33;43.00;;;39.72;;
52978;SDS011;63430;53.186;6.598;2023-04-16T11:55:44;42.38;;;39.28;;
52978;SDS011;63430;53.186;6.598;2023-04-16T11:57:48;40.38;;;37.25;;
52978;SDS011;63430;53.186;6.598;2023-04-16T11:59:53;31.02;;;28.27;;
52978;SDS011;63430;53.186;6.598;2023-04-16T12:02:13;41.70;;;38.42;;
52978;SDS011;63430;53.186;6.598;2023-04-16T12:04:18;40.95;;;37.58;;
52978;SDS011;63430;53.186;6.598;2023-04-16T12:06:25;33.17;;;30.17;;
52978;SDS011;63430;53.186;6.598;2023-04-16T12:08:30;40.08;;;35.97;;
52978;SDS011;63430;53.186;6.598;2023-04-16T12:10:33;45.08;;;41.00;;
52978;SDS011;63430;53.186;6.598;2023-04-16T12:12:39;35.85;;;32.55;;
52978;SDS011;63430;53.186;6.598;2023-04-16T12:14:48;39.92;;;36.72;;
52978;SDS011;63430;53.186;6.598;2023-04-16T12:16:54;31.75;;;28.90;;
52978;SDS011;63430;53.186;6.598;2023-04-16T12:18:58;42.03;;;38.60;;
52978;SDS011;63430;53.186;6.598;2023-04-16T12:21:05;34.42;;;31.00;;
52978;SDS011;63430;53.186;6.598;2023-04-16T12:23:08;33.85;;;30.77;;
52978;SDS011;63430;53.186;6.598;2023-04-16T12:25:12;35.37;;;31.73;;
52978;SDS011;63430;53.186;6.598;2023-04-16T12:29:22;33.25;;;30.08;;
52978;SDS011;63430;53.186;6.598;2023-04-16T12:31:35;38.75;;;35.33;;